Time,TemperatureF,DewpointF,PressureIn,WindDirection,WindDirectionDegrees,WindSpeedMPH,WindSpeedGustMPH,Humidity,HourlyPrecipIn,Conditions,Clouds,dailyrainin,SoftwareType,DateUTC
2013-07-09 00:06:00,57.0,51.2,29.85,North,0,0.0,-999.0,81,0.00,,,0.00,open2300 v1.10,2013-07-09 07:06:00,
2013-07-09 00:21:00,56.5,50.4,29.86,North,0,0.0,-999.0,80,0.00,,,0.00,open2300 v1.10,2013-07-09 07:21:00,
2013-07-09 00:36:00,56.5,50.4,29.86,North,0,0.0,-999.0,80,0.00,,,0.00,open2300 v1.10,2013-07-09 07:36:00,
2013-07-09 00:53:00,56.5,50.4,29.86,North,0,0.0,-999.0,80,0.00,,,0.00,open2300 v1.10,2013-07-09 07:53:00,
2013-07-09 01:07:00,56.5,50.4,29.86,North,0,0.0,-999.0,80,0.00,,,0.00,open2300 v1.10,2013-07-09 08:07:00,
2013-07-09 01:21:00,56.3,50.2,29.86,North,0,0.0,-999.0,80,0.00,,,0.00,open2300 v1.10,2013-07-09 08:21:00,
2013-07-09 01:36:00,56.5,50.7,29.86,North,0,0.0,-999.0,81,0.00,,,0.00,open2300 v1.10,2013-07-09 08:36:00,
2013-07-09 01:51:00,56.8,51.0,29.86,North,0,0.0,-999.0,81,0.00,,,0.00,open2300 v1.10,2013-07-09 08:51:00,
2013-07-09 02:07:00,57.0,51.2,29.86,North,0,0.0,-999.0,81,0.00,,,0.00,open2300 v1.10,2013-07-09 09:07:00,
2013-07-09 02:21:00,56.8,51.0,29.86,North,0,0.0,-999.0,81,0.00,,,0.00,open2300 v1.10,2013-07-09 09:21:00,
2013-07-09 02:36:00,56.8,51.0,29.86,North,0,0.0,-999.0,81,0.00,,,0.00,open2300 v1.10,2013-07-09 09:36:00,
2013-07-09 02:51:00,57.0,51.2,29.86,North,0,0.0,-999.0,81,0.00,,,0.00,open2300 v1.10,2013-07-09 09:51:00,
2013-07-09 03:07:00,56.5,50.7,29.86,North,0,0.0,-999.0,81,0.00,,,0.00,open2300 v1.10,2013-07-09 10:07:00,
2013-07-09 03:21:00,56.5,50.7,29.86,North,0,0.0,-999.0,81,0.00,,,0.00,open2300 v1.10,2013-07-09 10:21:00,
2013-07-09 03:36:00,56.8,51.0,29.86,North,0,0.0,-999.0,81,0.00,,,0.00,open2300 v1.10,2013-07-09 10:36:00,
2013-07-09 03:51:00,56.8,51.0,29.86,North,0,0.0,-999.0,81,0.00,,,0.00,open2300 v1.10,2013-07-09 10:51:00,
2013-07-09 04:07:00,56.8,51.0,29.86,North,0,0.0,-999.0,81,0.00,,,0.00,open2300 v1.10,2013-07-09 11:07:00,
2013-07-09 04:21:00,56.5,51.0,29.87,North,0,0.0,-999.0,82,0.00,,,0.00,open2300 v1.10,2013-07-09 11:21:00,
2013-07-09 04:36:00,56.5,51.0,29.87,North,0,0.0,-999.0,82,0.00,,,0.00,open2300 v1.10,2013-07-09 11:36:00,
2013-07-09 04:51:00,56.5,51.0,29.88,North,0,0.0,-999.0,82,0.00,,,0.00,open2300 v1.10,2013-07-09 11:51:00,
2013-07-09 05:07:00,56.5,50.7,29.88,North,0,0.0,-999.0,81,0.00,,,0.00,open2300 v1.10,2013-07-09 12:07:00,
2013-07-09 05:21:00,56.5,50.7,29.88,North,0,0.0,-999.0,81,0.00,,,0.00,open2300 v1.10,2013-07-09 12:21:00,
2013-07-09 05:36:00,56.3,50.5,29.89,North,0,0.0,-999.0,81,0.00,,,0.00,open2300 v1.10,2013-07-09 12:36:00,
2013-07-09 05:51:00,56.1,50.3,29.89,North,0,0.0,-999.0,81,0.00,,,0.00,open2300 v1.10,2013-07-09 12:51:00,
2013-07-09 06:07:00,55.9,50.1,29.88,North,0,0.0,-999.0,81,0.00,,,0.00,open2300 v1.10,2013-07-09 13:07:00,
2013-07-09 06:21:00,55.6,49.8,29.89,North,0,0.0,-999.0,81,0.00,,,0.00,open2300 v1.10,2013-07-09 13:21:00,
2013-07-09 06:36:00,55.2,49.4,29.89,North,0,0.0,-999.0,81,0.00,,,0.00,open2300 v1.10,2013-07-09 13:36:00,
2013-07-09 06:51:00,55.8,50.0,29.89,North,0,0.0,-999.0,81,0.00,,,0.00,open2300 v1.10,2013-07-09 13:51:00,
2013-07-09 07:07:00,55.9,50.5,29.90,North,0,0.0,-999.0,82,0.00,,,0.00,open2300 v1.10,2013-07-09 14:07:00,
2013-07-09 07:21:00,56.1,50.7,29.91,North,0,0.0,-999.0,82,0.00,,,0.00,open2300 v1.10,2013-07-09 14:21:00,
2013-07-09 07:36:00,56.5,50.7,29.91,North,0,0.0,-999.0,81,0.00,,,0.00,open2300 v1.10,2013-07-09 14:36:00,
2013-07-09 07:51:00,56.8,51.0,29.91,North,0,0.0,-999.0,81,0.00,,,0.00,open2300 v1.10,2013-07-09 14:51:00,
2013-07-09 08:06:00,57.4,51.6,29.91,North,0,0.0,-999.0,81,0.00,,,0.00,open2300 v1.10,2013-07-09 15:06:00,
2013-07-09 08:21:00,57.9,52.1,29.91,North,0,0.0,-999.0,81,0.00,,,0.00,open2300 v1.10,2013-07-09 15:21:00,
2013-07-09 08:36:00,58.8,53.0,29.92,North,0,0.0,-999.0,81,0.00,,,0.00,open2300 v1.10,2013-07-09 15:36:00,
2013-07-09 08:51:00,59.5,53.4,29.91,North,0,0.0,-999.0,80,0.00,,,0.00,open2300 v1.10,2013-07-09 15:51:00,
2013-07-09 09:06:00,60.4,54.3,29.92,North,0,0.0,-999.0,80,0.00,,,0.00,open2300 v1.10,2013-07-09 16:06:00,
2013-07-09 09:21:00,61.2,54.6,29.92,North,0,0.0,-999.0,79,0.00,,,0.00,open2300 v1.10,2013-07-09 16:21:00,
2013-07-09 09:36:00,61.5,55.0,29.91,North,0,0.0,-999.0,79,0.00,,,0.00,open2300 v1.10,2013-07-09 16:36:00,
2013-07-09 09:51:00,61.3,54.8,29.91,North,0,0.0,-999.0,79,0.00,,,0.00,open2300 v1.10,2013-07-09 16:51:00,
2013-07-09 10:06:00,61.5,55.0,29.91,North,0,0.0,-999.0,79,0.00,,,0.00,open2300 v1.10,2013-07-09 17:06:00,
2013-07-09 10:21:00,61.5,55.0,29.91,North,0,0.0,-999.0,79,0.00,,,0.00,open2300 v1.10,2013-07-09 17:21:00,
2013-07-09 10:36:00,61.7,55.1,29.91,North,0,0.0,-999.0,79,0.00,,,0.00,open2300 v1.10,2013-07-09 17:36:00,
2013-07-09 10:51:00,62.1,55.1,29.91,North,0,0.0,-999.0,78,0.00,,,0.00,open2300 v1.10,2013-07-09 17:51:00,
2013-07-09 11:06:00,62.4,55.4,29.91,North,0,0.0,-999.0,78,0.00,,,0.00,open2300 v1.10,2013-07-09 18:06:00,
2013-07-09 11:21:00,63.0,55.9,29.91,North,0,0.0,-999.0,78,0.00,,,0.00,open2300 v1.10,2013-07-09 18:21:00,
2013-07-09 11:36:00,63.5,56.1,29.91,North,0,0.0,-999.0,77,0.00,,,0.00,open2300 v1.10,2013-07-09 18:36:00,
2013-07-09 11:51:00,63.9,56.1,29.91,North,0,0.0,-999.0,76,0.00,,,0.00,open2300 v1.10,2013-07-09 18:51:00,
2013-07-09 12:06:00,64.2,56.5,29.91,North,0,0.0,-999.0,76,0.00,,,0.00,open2300 v1.10,2013-07-09 19:06:00,
2013-07-09 12:21:00,64.2,55.8,29.91,North,0,0.0,-999.0,74,0.00,,,0.00,open2300 v1.10,2013-07-09 19:21:00,
2013-07-09 12:36:00,64.8,55.9,29.91,North,0,0.0,-999.0,73,0.00,,,0.00,open2300 v1.10,2013-07-09 19:36:00,
2013-07-09 12:51:00,65.1,55.9,29.91,North,0,0.0,-999.0,72,0.00,,,0.00,open2300 v1.10,2013-07-09 19:51:00,
2013-07-09 13:06:00,64.6,55.0,29.90,North,0,0.0,-999.0,71,0.00,,,0.00,open2300 v1.10,2013-07-09 20:06:00,
2013-07-09 13:21:00,64.6,54.7,29.90,North,0,0.0,-999.0,70,0.00,,,0.00,open2300 v1.10,2013-07-09 20:21:00,
2013-07-09 13:36:00,64.8,54.8,29.89,North,0,0.0,-999.0,70,0.00,,,0.00,open2300 v1.10,2013-07-09 20:36:00,
2013-07-09 13:51:00,64.6,54.7,29.89,North,0,0.0,-999.0,70,0.00,,,0.00,open2300 v1.10,2013-07-09 20:51:00,
2013-07-09 14:06:00,64.6,54.2,29.89,North,0,0.0,-999.0,69,0.00,,,0.00,open2300 v1.10,2013-07-09 21:06:00,
2013-07-09 14:21:00,64.8,54.4,29.89,North,0,0.0,-999.0,69,0.00,,,0.00,open2300 v1.10,2013-07-09 21:21:00,
2013-07-09 14:36:00,64.8,54.4,29.89,North,0,0.0,-999.0,69,0.00,,,0.00,open2300 v1.10,2013-07-09 21:36:00,
2013-07-09 14:51:00,65.1,54.3,29.89,North,0,0.0,-999.0,68,0.00,,,0.00,open2300 v1.10,2013-07-09 21:51:00,
2013-07-09 15:06:00,64.6,53.4,29.88,North,0,0.0,-999.0,67,0.00,,,0.00,open2300 v1.10,2013-07-09 22:06:00,
2013-07-09 15:21:00,65.1,53.9,29.88,North,0,0.0,-999.0,67,0.00,,,0.00,open2300 v1.10,2013-07-09 22:21:00,
2013-07-09 15:36:00,65.5,54.2,29.87,North,0,0.0,-999.0,67,0.00,,,0.00,open2300 v1.10,2013-07-09 22:36:00,
2013-07-09 15:51:00,65.7,53.9,29.87,North,0,0.0,-999.0,66,0.00,,,0.00,open2300 v1.10,2013-07-09 22:51:00,
2013-07-09 16:06:00,66.0,54.3,29.86,North,0,0.0,-999.0,66,0.00,,,0.00,open2300 v1.10,2013-07-09 23:06:00,
2013-07-09 16:21:00,66.4,54.6,29.86,North,0,0.0,-999.0,66,0.00,,,0.00,open2300 v1.10,2013-07-09 23:21:00,
2013-07-09 16:36:00,66.7,54.5,29.86,North,0,0.0,-999.0,65,0.00,,,0.00,open2300 v1.10,2013-07-09 23:36:00,
2013-07-09 16:51:00,66.7,54.5,29.85,North,0,0.0,-999.0,65,0.00,,,0.00,open2300 v1.10,2013-07-09 23:51:00,
2013-07-09 17:06:00,66.9,54.3,29.85,North,0,0.0,-999.0,64,0.00,,,0.00,open2300 v1.10,2013-07-10 00:06:00,
2013-07-09 17:21:00,67.6,55.0,29.83,North,0,0.0,-999.0,64,0.00,,,0.00,open2300 v1.10,2013-07-10 00:21:00,
2013-07-09 17:36:00,68.2,55.5,29.83,North,0,0.0,-999.0,64,0.00,,,0.00,open2300 v1.10,2013-07-10 00:36:00,
2013-07-09 17:51:00,68.2,55.1,29.82,North,0,0.0,-999.0,63,0.00,,,0.00,open2300 v1.10,2013-07-10 00:51:00,
2013-07-09 18:06:00,67.1,54.0,29.83,North,0,0.0,-999.0,63,0.00,,,0.00,open2300 v1.10,2013-07-10 01:06:00,
2013-07-09 18:21:00,66.6,54.4,29.83,North,0,0.0,-999.0,65,0.00,,,0.00,open2300 v1.10,2013-07-10 01:21:00,
2013-07-09 18:36:00,65.7,53.9,29.82,North,0,0.0,-999.0,66,0.00,,,0.00,open2300 v1.10,2013-07-10 01:36:00,
2013-07-09 18:51:00,65.8,54.5,29.82,North,0,0.0,-999.0,67,0.00,,,0.00,open2300 v1.10,2013-07-10 01:51:00,
2013-07-09 19:06:00,65.5,53.8,29.83,North,0,0.0,-999.0,66,0.00,,,0.00,open2300 v1.10,2013-07-10 02:06:00,
2013-07-09 19:21:00,65.1,53.9,29.83,North,0,0.0,-999.0,67,0.00,,,0.00,open2300 v1.10,2013-07-10 02:21:00,
2013-07-09 19:36:00,64.2,53.5,29.82,North,0,0.0,-999.0,68,0.00,,,0.00,open2300 v1.10,2013-07-10 02:36:00,
2013-07-09 19:51:00,64.2,53.5,29.83,North,0,0.0,-999.0,68,0.00,,,0.00,open2300 v1.10,2013-07-10 02:51:00,
2013-07-09 20:06:00,62.8,52.5,29.83,North,0,0.0,-999.0,69,0.00,,,0.00,open2300 v1.10,2013-07-10 03:06:00,
2013-07-09 20:21:00,61.0,51.6,29.82,North,0,0.0,-999.0,71,0.00,,,0.00,open2300 v1.10,2013-07-10 03:21:00,
2013-07-09 20:36:00,60.3,51.6,29.82,North,0,0.0,-999.0,73,0.00,,,0.00,open2300 v1.10,2013-07-10 03:36:00,
2013-07-09 20:51:00,59.4,50.7,29.82,North,0,0.0,-999.0,73,0.00,,,0.00,open2300 v1.10,2013-07-10 03:51:00,
2013-07-09 21:06:00,58.5,50.5,29.83,North,0,0.0,-999.0,75,0.00,,,0.00,open2300 v1.10,2013-07-10 04:06:00,
2013-07-09 21:21:00,57.9,50.0,29.83,North,0,0.0,-999.0,75,0.00,,,0.00,open2300 v1.10,2013-07-10 04:21:00,
2013-07-09 21:36:00,57.7,50.2,29.84,North,0,0.0,-999.0,76,0.00,,,0.00,open2300 v1.10,2013-07-10 04:36:00,
2013-07-09 21:51:00,57.4,49.8,29.84,North,0,0.0,-999.0,76,0.00,,,0.00,open2300 v1.10,2013-07-10 04:51:00,
2013-07-09 22:06:00,57.4,50.2,29.85,North,0,0.0,-999.0,77,0.00,,,0.00,open2300 v1.10,2013-07-10 05:06:00,
2013-07-09 22:21:00,57.0,50.2,29.85,North,0,0.0,-999.0,78,0.00,,,0.00,open2300 v1.10,2013-07-10 05:21:00,
2013-07-09 22:36:00,57.0,50.2,29.86,North,0,0.0,-999.0,78,0.00,,,0.00,open2300 v1.10,2013-07-10 05:36:00,
2013-07-09 22:51:00,57.4,50.5,29.86,North,0,0.0,-999.0,78,0.00,,,0.00,open2300 v1.10,2013-07-10 05:51:00,
2013-07-09 23:06:00,57.2,50.4,29.86,North,0,0.0,-999.0,78,0.00,,,0.00,open2300 v1.10,2013-07-10 06:06:00,
2013-07-09 23:21:00,57.0,50.2,29.86,North,0,0.0,-999.0,78,0.00,,,0.00,open2300 v1.10,2013-07-10 06:21:00,
2013-07-09 23:36:00,56.7,50.2,29.86,North,0,0.0,-999.0,79,0.00,,,0.00,open2300 v1.10,2013-07-10 06:36:00,
2013-07-09 23:51:00,56.3,50.2,29.87,North,0,0.0,-999.0,80,0.00,,,0.00,open2300 v1.10,2013-07-10 06:51:00,